Time;durP1;ratioP1;P1;durP2;ratioP2;P2;SDS_P1;SDS_P2;PMS_P1;PMS_P2;Temp;Humidity;BMP_temperature;BMP_pressure;BME280_temperature;BME280_humidity;BME280_pressure;Samples;Min_cycle;Max_cycle;Signal;HPM_P1;HPM_P2
2022/01/27 00:01:03;;;;;;;18.63;11.07;;;;;;;;;;5022440;28;20240;-80
2022/01/27 00:03:35;;;;;;;27.30;16.43;;;;;;;;;;5052796;28;20319;-80
2022/01/27 00:06:06;;;;;;;30.13;17.70;;;;;;;;;;5047993;28;20229;-80
2022/01/27 00:08:41;;;;;;;17.97;11.57;;;;;;;;;;5035481;28;20241;-80
2022/01/27 00:11:12;;;;;;;28.40;16.70;;;;;;;;;;5053541;28;20289;-81
2022/01/27 00:13:45;;;;;;;18.00;11.63;;;;;;;;;;5051400;28;20275;-80
2022/01/27 00:16:16;;;;;;;20.50;10.57;;;;;;;;;;5041664;28;20202;-80
2022/01/27 00:18:45;;;;;;;11.97;7.37;;;;;;;;;;5047768;28;20224;-80
2022/01/27 00:21:13;;;;;;;26.17;15.97;;;;;;;;;;5057043;28;20207;-80
2022/01/27 00:23:41;;;;;;;25.13;15.53;;;;;;;;;;5056419;28;20603;-80
2022/01/27 00:26:08;;;;;;;28.83;17.60;;;;;;;;;;5051335;28;20759;-80
2022/01/27 00:28:35;;;;;;;31.33;16.53;;;;;;;;;;5042593;28;20246;-80
2022/01/27 00:31:02;;;;;;;28.40;15.80;;;;;;;;;;5035887;28;20217;-80
2022/01/27 00:33:29;;;;;;;27.77;16.37;;;;;;;;;;5054304;28;20237;-80
2022/01/27 00:35:58;;;;;;;26.50;16.47;;;;;;;;;;5055702;28;20224;-80
2022/01/27 00:38:25;;;;;;;31.20;18.50;;;;;;;;;;5054384;28;20739;-80
2022/01/27 00:40:52;;;;;;;25.80;16.33;;;;;;;;;;5053235;28;20564;-80
2022/01/27 00:43:19;;;;;;;33.43;16.70;;;;;;;;;;5053292;28;20239;-80
2022/01/27 00:45:46;;;;;;;28.17;18.23;;;;;;;;;;5053220;28;20729;-80
2022/01/27 00:48:16;;;;;;;29.07;17.17;;;;;;;;;;5055554;28;20233;-80
2022/01/27 00:50:43;;;;;;;33.77;19.40;;;;;;;;;;5043524;28;20198;-80
2022/01/27 00:53:27;;;;;;;29.00;16.13;;;;;;;;;;5035421;28;20241;-80
2022/01/27 00:55:55;;;;;;;29.97;16.87;;;;;;;;;;5051740;28;20228;-80
2022/01/27 00:58:36;;;;;;;26.23;14.77;;;;;;;;;;5049382;28;20617;-80
2022/01/27 01:01:08;;;;;;;27.50;17.30;;;;;;;;;;5045931;28;20209;-80
2022/01/27 01:03:40;;;;;;;25.40;15.87;;;;;;;;;;5056888;28;20300;-80
2022/01/27 01:06:23;;;;;;;21.20;13.67;;;;;;;;;;5041546;28;20242;-80
2022/01/27 01:12:05;;;;;;;31.97;16.53;;;;;;;;;;5074840;23;20232;-80
2022/01/27 01:14:41;;;;;;;22.93;14.80;;;;;;;;;;5072201;28;20254;-79
2022/01/27 01:17:24;;;;;;;17.20;12.03;;;;;;;;;;5056549;28;20232;-80
2022/01/27 01:20:04;;;;;;;24.07;14.07;;;;;;;;;;5057036;28;20601;-79
2022/01/27 01:30:51;;;;;;;27.37;16.60;;;;;;;;;;5038170;28;20204;-80
2022/01/27 01:33:24;;;;;;;25.57;15.83;;;;;;;;;;5036409;28;20321;-79
2022/01/27 01:36:01;;;;;;;26.67;16.10;;;;;;;;;;5037293;28;20228;-80
2022/01/27 01:38:30;;;;;;;26.97;17.10;;;;;;;;;;5051133;28;20701;-79
2022/01/27 01:40:59;;;;;;;24.43;15.27;;;;;;;;;;5051169;28;20266;-80
2022/01/27 01:43:26;;;;;;;28.13;15.67;;;;;;;;;;5036784;28;20238;-80
2022/01/27 01:45:53;;;;;;;20.67;12.73;;;;;;;;;;5051028;28;20259;-79
2022/01/27 01:48:21;;;;;;;30.47;15.23;;;;;;;;;;5055145;28;20234;-80
2022/01/27 01:50:48;;;;;;;32.17;15.57;;;;;;;;;;5055368;28;20209;-79
2022/01/27 01:53:15;;;;;;;27.50;16.70;;;;;;;;;;5055023;28;20263;-79
2022/01/27 01:55:42;;;;;;;26.90;15.17;;;;;;;;;;5056327;28;20259;-79
2022/01/27 01:58:11;;;;;;;26.77;16.67;;;;;;;;;;5048991;28;20242;-79
2022/01/27 02:00:38;;;;;;;19.17;10.37;;;;;;;;;;5051245;28;20202;-79
2022/01/27 02:03:05;;;;;;;21.00;12.20;;;;;;;;;;5046966;28;20245;-80
2022/01/27 02:05:39;;;;;;;27.23;17.27;;;;;;;;;;5064914;28;20221;-80
2022/01/27 02:08:28;;;;;;;13.63;9.03;;;;;;;;;;5075314;28;20235;-80
2022/01/27 02:19:13;;;;;;;28.33;15.63;;;;;;;;;;5018295;28;20705;-79
2022/01/27 02:21:46;;;;;;;23.77;15.63;;;;;;;;;;5036185;28;20226;-79
2022/01/27 02:24:13;;;;;;;22.53;12.53;;;;;;;;;;5036502;28;20209;-80
2022/01/27 02:26:41;;;;;;;18.57;12.20;;;;;;;;;;5035349;28;20226;-80
2022/01/27 02:29:08;;;;;;;24.50;14.07;;;;;;;;;;5055007;28;20206;-79
2022/01/27 02:31:35;;;;;;;15.43;9.70;;;;;;;;;;5052485;28;20226;-80
2022/01/27 02:34:04;;;;;;;15.67;9.33;;;;;;;;;;5049087;28;20209;-80
2022/01/27 02:36:32;;;;;;;14.50;8.30;;;;;;;;;;5035577;28;20575;-80
2022/01/27 02:39:01;;;;;;;26.83;15.03;;;;;;;;;;5043749;28;20252;-80
2022/01/27 02:41:29;;;;;;;29.40;17.03;;;;;;;;;;5054621;28;20229;-80
2022/01/27 02:43:57;;;;;;;25.67;16.13;;;;;;;;;;5044735;28;20283;-79
2022/01/27 02:46:31;;;;;;;31.07;17.13;;;;;;;;;;5054584;28;20265;-80
2022/01/27 02:48:58;;;;;;;19.40;11.67;;;;;;;;;;5052556;28;20224;-79
2022/01/27 02:51:25;;;;;;;20.37;10.70;;;;;;;;;;5036726;28;20233;-80
2022/01/27 02:53:53;;;;;;;30.47;17.23;;;;;;;;;;5040729;28;20689;-80
2022/01/27 02:56:21;;;;;;;21.20;13.00;;;;;;;;;;5052799;28;20227;-79
2022/01/27 02:58:48;;;;;;;30.93;17.17;;;;;;;;;;5048959;28;20260;-80
2022/01/27 03:01:19;;;;;;;33.00;17.63;;;;;;;;;;5046945;28;20658;-80
2022/01/27 03:03:46;;;;;;;15.47;8.83;;;;;;;;;;5041490;28;20225;-79
2022/01/27 03:06:14;;;;;;;33.93;17.57;;;;;;;;;;5058044;28;20208;-79
2022/01/27 03:08:41;;;;;;;31.30;18.10;;;;;;;;;;5057847;28;20240;-79
2022/01/27 03:11:12;;;;;;;39.93;17.40;;;;;;;;;;5037718;28;20214;-79
2022/01/27 03:13:41;;;;;;;33.80;18.60;;;;;;;;;;5038398;28;20246;-79
2022/01/27 03:16:08;;;;;;;30.10;17.33;;;;;;;;;;5056002;28;20224;-80
2022/01/27 03:18:35;;;;;;;30.17;15.83;;;;;;;;;;5045928;28;20262;-79
2022/01/27 03:21:03;;;;;;;29.70;17.53;;;;;;;;;;5053928;28;20201;-79
2022/01/27 03:23:30;;;;;;;33.80;18.87;;;;;;;;;;5057967;28;20229;-80
2022/01/27 03:25:57;;;;;;;33.93;17.20;;;;;;;;;;5050374;28;20598;-79
2022/01/27 03:28:26;;;;;;;32.33;16.20;;;;;;;;;;5038370;28;20248;-79
2022/01/27 03:30:55;;;;;;;32.27;17.67;;;;;;;;;;5046980;28;20236;-79
2022/01/27 03:33:22;;;;;;;30.67;18.10;;;;;;;;;;5037535;28;20238;-79
2022/01/27 03:35:49;;;;;;;32.33;17.13;;;;;;;;;;5046899;28;20202;-79
2022/01/27 03:38:16;;;;;;;32.20;16.83;;;;;;;;;;5039892;28;20242;-79
2022/01/27 03:40:43;;;;;;;31.53;17.03;;;;;;;;;;5028961;28;20257;-80
2022/01/27 03:43:11;;;;;;;36.10;18.17;;;;;;;;;;5049969;28;20244;-79
2022/01/27 03:45:38;;;;;;;17.97;11.17;;;;;;;;;;5056957;28;20629;-80
2022/01/27 03:48:07;;;;;;;29.27;14.40;;;;;;;;;;5057110;28;20252;-79
2022/01/27 03:50:34;;;;;;;34.40;16.67;;;;;;;;;;5037046;28;20202;-80
2022/01/27 03:53:01;;;;;;;36.83;18.20;;;;;;;;;;5040466;28;20236;-80
2022/01/27 03:55:28;;;;;;;27.37;16.23;;;;;;;;;;5050544;28;20205;-80
2022/01/27 03:57:56;;;;;;;31.10;17.77;;;;;;;;;;5056353;28;20240;-80
2022/01/27 04:00:23;;;;;;;32.73;16.60;;;;;;;;;;5042517;28;20214;-79
2022/01/27 04:03:01;;;;;;;35.40;18.37;;;;;;;;;;5035720;28;20238;-79
2022/01/27 04:05:35;;;;;;;37.73;18.77;;;;;;;;;;5051807;28;20208;-79
2022/01/27 04:08:02;;;;;;;33.87;19.87;;;;;;;;;;5036855;28;20265;-79
2022/01/27 04:10:29;;;;;;;21.43;14.10;;;;;;;;;;5052714;28;20209;-79
2022/01/27 04:12:56;;;;;;;34.90;18.50;;;;;;;;;;5038996;28;20653;-80
2022/01/27 04:15:23;;;;;;;37.50;19.57;;;;;;;;;;5037886;28;20674;-80
2022/01/27 04:17:50;;;;;;;34.23;18.63;;;;;;;;;;5042481;28;20236;-79
2022/01/27 04:20:17;;;;;;;25.07;15.00;;;;;;;;;;5057532;28;20235;-79
2022/01/27 04:22:45;;;;;;;27.03;13.67;;;;;;;;;;5039601;28;20268;-80
2022/01/27 04:25:13;;;;;;;31.13;18.17;;;;;;;;;;5040184;28;20214;-79
2022/01/27 04:27:44;;;;;;;36.17;19.07;;;;;;;;;;5027173;28;20279;-80
2022/01/27 04:30:15;;;;;;;37.30;18.23;;;;;;;;;;5054178;28;20300;-80
2022/01/27 04:32:47;;;;;;;23.73;12.97;;;;;;;;;;5056470;28;20321;-79
2022/01/27 04:35:17;;;;;;;28.83;15.87;;;;;;;;;;5058168;28;20219;-79
2022/01/27 04:38:03;;;;;;;37.27;19.53;;;;;;;;;;5057914;28;20234;-80
2022/01/27 04:40:35;;;;;;;35.03;18.40;;;;;;;;;;5057919;28;20287;-80
2022/01/27 04:43:09;;;;;;;30.70;15.73;;;;;;;;;;5056533;28;20245;-79
2022/01/27 04:45:44;;;;;;;39.67;20.87;;;;;;;;;;5057833;28;20235;-79
2022/01/27 04:48:14;;;;;;;31.43;18.23;;;;;;;;;;5057120;28;20236;-80
2022/01/27 04:50:42;;;;;;;29.40;15.13;;;;;;;;;;5057532;28;20239;-80
2022/01/27 04:53:16;;;;;;;38.80;19.67;;;;;;;;;;5058514;28;20244;-79
2022/01/27 04:55:43;;;;;;;30.13;16.53;;;;;;;;;;5059671;28;20765;-79
2022/01/27 04:58:15;;;;;;;30.80;19.30;;;;;;;;;;5057704;28;20254;-80
2022/01/27 05:00:42;;;;;;;35.10;17.50;;;;;;;;;;5057624;28;20263;-80
2022/01/27 05:03:18;;;;;;;14.07;9.60;;;;;;;;;;5057617;28;20271;-79
2022/01/27 05:05:45;;;;;;;19.97;11.30;;;;;;;;;;5058235;28;20209;-80
2022/01/27 05:08:18;;;;;;;31.97;17.97;;;;;;;;;;5052521;28;20289;-79
2022/01/27 05:10:54;;;;;;;31.57;17.60;;;;;;;;;;5052769;28;20295;-79
2022/01/27 05:13:24;;;;;;;23.67;14.67;;;;;;;;;;5052168;28;20744;-79
2022/01/27 05:15:51;;;;;;;26.53;15.40;;;;;;;;;;5052456;28;20202;-79
2022/01/27 05:18:19;;;;;;;34.40;17.90;;;;;;;;;;5052680;28;20238;-79
2022/01/27 05:20:46;;;;;;;34.27;16.77;;;;;;;;;;5053826;28;20206;-79
2022/01/27 05:23:15;;;;;;;24.40;12.60;;;;;;;;;;5059832;28;20294;-80
2022/01/27 05:25:42;;;;;;;30.87;16.40;;;;;;;;;;5063151;28;20220;-79
2022/01/27 05:28:09;;;;;;;24.70;14.53;;;;;;;;;;5061180;28;20237;-80
2022/01/27 05:30:36;;;;;;;27.17;17.27;;;;;;;;;;5063579;28;20216;-80
2022/01/27 05:33:04;;;;;;;30.63;16.27;;;;;;;;;;5063935;28;20241;-80
2022/01/27 05:35:31;;;;;;;26.63;15.70;;;;;;;;;;5063392;28;20212;-80
2022/01/27 05:37:58;;;;;;;27.77;15.20;;;;;;;;;;5063737;28;20238;-79
2022/01/27 05:40:26;;;;;;;29.63;16.67;;;;;;;;;;5063292;28;20213;-80
2022/01/27 05:42:53;;;;;;;27.63;15.80;;;;;;;;;;5062413;28;20717;-80
2022/01/27 05:45:20;;;;;;;28.73;18.17;;;;;;;;;;5063650;28;20212;-80
2022/01/27 05:47:48;;;;;;;28.57;15.97;;;;;;;;;;5056834;28;20234;-79
2022/01/27 05:50:15;;;;;;;29.50;16.10;;;;;;;;;;5054831;28;20206;-80
2022/01/27 05:52:42;;;;;;;30.00;16.53;;;;;;;;;;5053723;28;20259;-80
2022/01/27 05:55:10;;;;;;;20.60;12.27;;;;;;;;;;5054565;28;20215;-80
2022/01/27 05:57:38;;;;;;;31.57;16.77;;;;;;;;;;5055281;28;20250;-80
2022/01/27 06:00:06;;;;;;;16.23;9.57;;;;;;;;;;5056755;28;20430;-80
2022/01/27 06:02:33;;;;;;;19.23;12.57;;;;;;;;;;5056388;28;20324;-80
2022/01/27 06:05:02;;;;;;;24.50;12.93;;;;;;;;;;5056732;28;20216;-80
2022/01/27 06:07:29;;;;;;;27.90;13.70;;;;;;;;;;5056611;28;20267;-80
2022/01/27 06:09:56;;;;;;;29.83;17.40;;;;;;;;;;5063584;28;20220;-81
2022/01/27 06:12:24;;;;;;;28.93;15.73;;;;;;;;;;5064772;28;20298;-81
2022/01/27 06:14:52;;;;;;;28.53;14.67;;;;;;;;;;5055690;28;20214;-81
2022/01/27 06:17:19;;;;;;;29.17;16.17;;;;;;;;;;5025733;28;20620;-81
2022/01/27 06:19:47;;;;;;;18.70;13.00;;;;;;;;;;5040996;28;20215;-81
2022/01/27 06:22:14;;;;;;;20.97;11.87;;;;;;;;;;5043753;28;20293;-82
2022/01/27 06:24:42;;;;;;;24.73;13.83;;;;;;;;;;5041028;28;20267;-82
2022/01/27 06:27:09;;;;;;;19.33;12.30;;;;;;;;;;5041713;28;20737;-82
2022/01/27 06:29:37;;;;;;;25.53;14.93;;;;;;;;;;5044036;28;20227;-83
2022/01/27 06:32:05;;;;;;;22.37;11.60;;;;;;;;;;5043539;28;20234;-82
2022/01/27 06:34:33;;;;;;;26.13;15.07;;;;;;;;;;5044464;28;20217;-82
2022/01/27 06:37:00;;;;;;;25.90;14.70;;;;;;;;;;5043580;28;20693;-82
2022/01/27 06:39:27;;;;;;;27.03;14.07;;;;;;;;;;5047235;28;20201;-83
2022/01/27 06:41:54;;;;;;;28.57;15.57;;;;;;;;;;5055594;28;20292;-83
2022/01/27 06:44:21;;;;;;;29.43;14.40;;;;;;;;;;5056022;28;20205;-86
2022/01/27 06:46:48;;;;;;;15.40;9.17;;;;;;;;;;5046058;28;20218;-85
2022/01/27 06:49:17;;;;;;;22.30;12.17;;;;;;;;;;5036663;28;20237;-85
2022/01/27 06:51:45;;;;;;;22.07;12.23;;;;;;;;;;5037765;28;20304;-85
2022/01/27 06:54:12;;;;;;;26.07;13.37;;;;;;;;;;5037964;28;20214;-85
2022/01/27 06:56:40;;;;;;;21.43;12.07;;;;;;;;;;5040885;28;20237;-85
2022/01/27 06:59:07;;;;;;;24.73;13.60;;;;;;;;;;5040368;28;20296;-84
2022/01/27 07:01:34;;;;;;;17.83;9.70;;;;;;;;;;5037984;28;20226;-84
2022/01/27 07:04:01;;;;;;;21.13;11.97;;;;;;;;;;5037820;28;20665;-84
2022/01/27 07:06:32;;;;;;;18.17;10.80;;;;;;;;;;5037377;28;20213;-85
2022/01/27 07:09:00;;;;;;;19.73;10.70;;;;;;;;;;5036228;28;20243;-84
2022/01/27 07:11:27;;;;;;;25.80;13.83;;;;;;;;;;5036904;28;20240;-85
2022/01/27 07:13:54;;;;;;;23.70;12.93;;;;;;;;;;5034840;28;20237;-84
2022/01/27 07:16:21;;;;;;;31.63;16.20;;;;;;;;;;5035673;28;20654;-83
2022/01/27 07:18:48;;;;;;;16.57;9.97;;;;;;;;;;5034962;28;20234;-83
2022/01/27 07:21:16;;;;;;;21.77;13.23;;;;;;;;;;5036073;28;20221;-83
2022/01/27 07:23:56;;;;;;;23.00;13.47;;;;;;;;;;5035155;28;20752;-84
2022/01/27 07:26:25;;;;;;;24.50;12.30;;;;;;;;;;5036290;28;20213;-84
2022/01/27 07:28:52;;;;;;;21.83;13.97;;;;;;;;;;5035576;28;20238;-83
2022/01/27 07:31:20;;;;;;;24.40;13.83;;;;;;;;;;5035629;28;20194;-83
2022/01/27 07:33:48;;;;;;;19.27;11.00;;;;;;;;;;5038613;28;20320;-83
2022/01/27 07:36:15;;;;;;;23.03;12.17;;;;;;;;;;5036780;28;20220;-83
2022/01/27 07:38:44;;;;;;;22.63;13.40;;;;;;;;;;5036071;28;20230;-83
2022/01/27 07:41:11;;;;;;;11.97;8.70;;;;;;;;;;5038792;28;20234;-83
2022/01/27 07:43:40;;;;;;;19.03;11.67;;;;;;;;;;5036766;28;20242;-83
2022/01/27 07:46:07;;;;;;;10.97;7.10;;;;;;;;;;5036599;28;20290;-83
2022/01/27 07:48:34;;;;;;;17.97;10.83;;;;;;;;;;5039032;28;20237;-82
2022/01/27 07:51:02;;;;;;;19.63;9.67;;;;;;;;;;5044843;28;20210;-82
2022/01/27 07:53:29;;;;;;;23.87;12.57;;;;;;;;;;5035879;28;20237;-82
2022/01/27 07:55:58;;;;;;;17.00;9.10;;;;;;;;;;5053420;28;20228;-81
2022/01/27 07:58:25;;;;;;;21.63;12.30;;;;;;;;;;5044297;28;20226;-82
2022/01/27 08:00:52;;;;;;;20.77;11.37;;;;;;;;;;5043978;28;20235;-82
2022/01/27 08:03:19;;;;;;;24.73;14.63;;;;;;;;;;5044787;28;20245;-82
2022/01/27 08:05:46;;;;;;;16.97;9.97;;;;;;;;;;5044632;28;20206;-82
2022/01/27 08:08:13;;;;;;;26.03;13.70;;;;;;;;;;5044210;28;20242;-82
2022/01/27 08:10:40;;;;;;;26.53;14.10;;;;;;;;;;5044528;28;20225;-82
2022/01/27 08:13:09;;;;;;;20.33;11.77;;;;;;;;;;5044269;28;20235;-82
2022/01/27 08:15:37;;;;;;;26.13;14.00;;;;;;;;;;5042894;28;20208;-82
2022/01/27 08:18:04;;;;;;;21.70;11.90;;;;;;;;;;5042782;28;20244;-82
2022/01/27 08:20:31;;;;;;;16.77;10.93;;;;;;;;;;5043476;28;20210;-83
2022/01/27 08:22:59;;;;;;;20.53;11.60;;;;;;;;;;5042796;28;20235;-82
2022/01/27 08:25:26;;;;;;;20.97;12.90;;;;;;;;;;5044595;28;20210;-82
2022/01/27 08:27:56;;;;;;;17.13;10.83;;;;;;;;;;5043996;28;20238;-83
2022/01/27 08:30:28;;;;;;;21.77;12.37;;;;;;;;;;5044126;28;20238;-82
2022/01/27 08:32:59;;;;;;;23.70;12.27;;;;;;;;;;5044397;28;20325;-82
2022/01/27 08:35:26;;;;;;;13.87;9.27;;;;;;;;;;5044643;28;20260;-82
2022/01/27 08:37:53;;;;;;;12.57;8.10;;;;;;;;;;5045351;28;20230;-82
2022/01/27 08:40:21;;;;;;;28.90;14.43;;;;;;;;;;5044227;28;20237;-82
2022/01/27 08:42:48;;;;;;;18.30;12.47;;;;;;;;;;5042713;28;20234;-83
2022/01/27 08:45:16;;;;;;;21.47;13.30;;;;;;;;;;5044861;28;20202;-82
2022/01/27 08:47:45;;;;;;;20.17;14.40;;;;;;;;;;5044453;28;20241;-82
2022/01/27 08:50:13;;;;;;;20.70;11.70;;;;;;;;;;5044004;28;20230;-82
2022/01/27 08:52:40;;;;;;;26.23;14.43;;;;;;;;;;5042774;28;20269;-83
2022/01/27 08:55:08;;;;;;;23.73;13.90;;;;;;;;;;5045422;28;20218;-82
2022/01/27 08:57:35;;;;;;;14.47;8.13;;;;;;;;;;5043641;28;20237;-82
2022/01/27 09:00:04;;;;;;;21.03;10.83;;;;;;;;;;5044178;28;20210;-83
2022/01/27 09:02:32;;;;;;;19.70;12.00;;;;;;;;;;5042517;28;20277;-82
2022/01/27 09:05:00;;;;;;;25.43;13.40;;;;;;;;;;5043856;28;20195;-83
2022/01/27 09:07:27;;;;;;;19.27;11.67;;;;;;;;;;5045594;28;20237;-83
2022/01/27 09:09:54;;;;;;;21.97;12.73;;;;;;;;;;5041959;28;20242;-82
2022/01/27 09:12:22;;;;;;;11.53;7.53;;;;;;;;;;5040283;28;20252;-82
2022/01/27 09:14:49;;;;;;;21.40;11.80;;;;;;;;;;5041466;28;20207;-82
2022/01/27 09:17:16;;;;;;;18.60;11.83;;;;;;;;;;5042299;28;20237;-82
2022/01/27 09:19:46;;;;;;;19.83;11.27;;;;;;;;;;5042995;28;20203;-82
2022/01/27 09:22:16;;;;;;;21.37;11.67;;;;;;;;;;5040805;28;20241;-82
2022/01/27 09:24:52;;;;;;;21.93;12.30;;;;;;;;;;5041781;28;20317;-82
2022/01/27 09:27:19;;;;;;;16.80;9.63;;;;;;;;;;5041990;28;20237;-82
2022/01/27 09:29:47;;;;;;;13.00;9.33;;;;;;;;;;5042338;28;20237;-83
2022/01/27 09:32:15;;;;;;;16.53;10.10;;;;;;;;;;5041415;28;20237;-82
2022/01/27 09:34:42;;;;;;;16.60;10.63;;;;;;;;;;5043745;28;20221;-82
2022/01/27 09:37:09;;;;;;;13.50;8.87;;;;;;;;;;5042512;28;20237;-83
2022/01/27 09:39:38;;;;;;;14.67;9.73;;;;;;;;;;5037446;28;20560;-82
2022/01/27 09:42:06;;;;;;;12.33;7.67;;;;;;;;;;5042453;28;20342;-82
2022/01/27 09:44:34;;;;;;;13.73;8.60;;;;;;;;;;5045035;28;20211;-82
2022/01/27 09:47:05;;;;;;;10.00;5.83;;;;;;;;;;5042408;28;20592;-82
2022/01/27 09:49:36;;;;;;;22.33;12.90;;;;;;;;;;5042416;28;20298;-84
2022/01/27 09:52:04;;;;;;;11.73;7.10;;;;;;;;;;5042763;28;20238;-83
2022/01/27 09:54:31;;;;;;;14.20;9.37;;;;;;;;;;5045831;28;20207;-83
2022/01/27 09:57:00;;;;;;;7.80;6.03;;;;;;;;;;5046444;28;20237;-83
2022/01/27 09:59:27;;;;;;;20.33;11.30;;;;;;;;;;5046211;28;20186;-83
2022/01/27 10:01:55;;;;;;;9.83;7.03;;;;;;;;;;5046523;28;20248;-83
2022/01/27 10:04:23;;;;;;;14.43;8.77;;;;;;;;;;5048985;28;20203;-84
2022/01/27 10:06:56;;;;;;;24.37;11.97;;;;;;;;;;5046921;28;20264;-83
2022/01/27 10:09:27;;;;;;;14.13;8.50;;;;;;;;;;5046800;28;20206;-83
2022/01/27 10:11:54;;;;;;;18.20;9.97;;;;;;;;;;5048615;28;20241;-82
2022/01/27 10:14:23;;;;;;;21.80;11.93;;;;;;;;;;5048267;28;20237;-82
2022/01/27 10:16:52;;;;;;;14.40;9.97;;;;;;;;;;5047084;28;20242;-83
2022/01/27 10:19:20;;;;;;;18.90;11.83;;;;;;;;;;5050234;28;20199;-82
2022/01/27 10:21:48;;;;;;;17.20;10.70;;;;;;;;;;5048408;28;20228;-83
2022/01/27 10:24:16;;;;;;;18.97;9.97;;;;;;;;;;5050551;28;20210;-84
2022/01/27 10:26:47;;;;;;;14.63;8.53;;;;;;;;;;5049931;28;20252;-83
2022/01/27 10:29:17;;;;;;;17.80;10.50;;;;;;;;;;5049068;28;20254;-84
2022/01/27 10:31:46;;;;;;;11.77;8.43;;;;;;;;;;5050940;28;20218;-83
2022/01/27 10:34:15;;;;;;;15.63;9.03;;;;;;;;;;5049746;28;20217;-84
2022/01/27 10:36:44;;;;;;;17.03;9.33;;;;;;;;;;5049056;28;20210;-84
2022/01/27 10:39:13;;;;;;;10.03;7.47;;;;;;;;;;5051183;28;20211;-86
2022/01/27 10:41:41;;;;;;;21.63;13.67;;;;;;;;;;5054020;28;20246;-85
2022/01/27 10:44:10;;;;;;;17.07;11.43;;;;;;;;;;5054446;28;20200;-84
2022/01/27 10:46:43;;;;;;;17.30;10.70;;;;;;;;;;5053244;28;20202;-84
2022/01/27 10:49:21;;;;;;;16.40;9.77;;;;;;;;;;5041426;28;20738;-84
2022/01/27 10:51:52;;;;;;;21.60;11.20;;;;;;;;;;5036480;28;22742;-85
2022/01/27 10:54:34;;;;;;;19.70;12.93;;;;;;;;;;5038284;28;20285;-83
2022/01/27 10:57:02;;;;;;;13.17;9.47;;;;;;;;;;5037161;28;20237;-87
2022/01/27 10:59:32;;;;;;;18.33;11.33;;;;;;;;;;5041750;28;20697;-84
2022/01/27 11:01:59;;;;;;;8.23;6.27;;;;;;;;;;5037907;28;20639;-85
2022/01/27 11:04:35;;;;;;;18.57;11.07;;;;;;;;;;5039284;28;20663;-85
2022/01/27 11:07:03;;;;;;;19.87;12.43;;;;;;;;;;5040300;28;20241;-85
2022/01/27 11:09:33;;;;;;;19.10;10.00;;;;;;;;;;5040030;28;20226;-81
2022/01/27 11:12:06;;;;;;;10.70;7.03;;;;;;;;;;5041194;28;20234;-82
2022/01/27 11:14:33;;;;;;;14.10;8.80;;;;;;;;;;5042645;28;20741;-83
2022/01/27 11:17:02;;;;;;;7.13;5.60;;;;;;;;;;5053244;28;20222;-83
2022/01/27 11:22:41;;;;;;;10.37;7.73;;;;;;;;;;5043742;28;20277;-83
2022/01/27 11:25:49;;;;;;;10.00;7.17;;;;;;;;;;5049272;28;20269;-83
2022/01/27 11:27:59;;;;;;;17.53;10.20;;;;;;;;;;5047908;28;20253;-83
2022/01/27 11:30:32;;;;;;;16.23;10.13;;;;;;;;;;5051836;28;20246;-84
2022/01/27 11:33:03;;;;;;;18.50;10.87;;;;;;;;;;5051095;28;20302;-84
2022/01/27 11:35:30;;;;;;;11.73;7.77;;;;;;;;;;5053168;28;20207;-85
2022/01/27 11:38:01;;;;;;;18.30;9.20;;;;;;;;;;5052598;28;20241;-85
2022/01/27 11:40:35;;;;;;;7.50;5.37;;;;;;;;;;5052861;28;20191;-84
2022/01/27 11:43:03;;;;;;;11.57;8.33;;;;;;;;;;5052546;28;20245;-85
2022/01/27 11:45:31;;;;;;;15.00;9.80;;;;;;;;;;5049042;28;20594;-83
2022/01/27 11:48:02;;;;;;;18.43;11.73;;;;;;;;;;5056561;28;20231;-84
2022/01/27 11:50:34;;;;;;;11.77;7.83;;;;;;;;;;5053937;28;20229;-84
2022/01/27 11:53:03;;;;;;;18.90;11.63;;;;;;;;;;5047972;28;20268;-83
2022/01/27 11:55:40;;;;;;;10.07;7.97;;;;;;;;;;5046443;28;20217;-82
2022/01/27 11:58:14;;;;;;;18.43;12.00;;;;;;;;;;5041379;28;20234;-85
2022/01/27 12:00:42;;;;;;;18.37;12.37;;;;;;;;;;5035873;28;20209;-84
2022/01/27 12:03:09;;;;;;;17.93;11.13;;;;;;;;;;5034726;28;20242;-84
2022/01/27 12:05:38;;;;;;;19.67;12.87;;;;;;;;;;5034834;28;20203;-84
2022/01/27 12:08:23;;;;;;;19.13;12.43;;;;;;;;;;5035653;28;20292;-84
2022/01/27 12:10:52;;;;;;;16.37;9.70;;;;;;;;;;5037568;28;20230;-85
2022/01/27 12:13:43;;;;;;;11.77;7.03;;;;;;;;;;5035256;28;20265;-84
2022/01/27 12:16:24;;;;;;;15.87;10.37;;;;;;;;;;5047542;28;20207;-84
2022/01/27 12:18:58;;;;;;;11.20;8.00;;;;;;;;;;5040172;28;20254;-84
2022/01/27 12:21:32;;;;;;;12.33;9.00;;;;;;;;;;5052482;28;20214;-84
2022/01/27 12:24:20;;;;;;;17.63;11.70;;;;;;;;;;5051936;28;20213;-84
2022/01/27 12:26:50;;;;;;;12.07;8.00;;;;;;;;;;5051514;28;20191;-84
2022/01/27 12:29:24;;;;;;;16.87;9.77;;;;;;;;;;5051750;28;20207;-84
2022/01/27 12:31:52;;;;;;;14.10;8.23;;;;;;;;;;5051506;28;20261;-84
2022/01/27 12:34:19;;;;;;;20.73;11.57;;;;;;;;;;5048925;28;20220;-84
2022/01/27 12:36:59;;;;;;;14.73;9.40;;;;;;;;;;5045892;28;20244;-84
2022/01/27 12:39:27;;;;;;;13.80;10.27;;;;;;;;;;5050447;28;20210;-84
2022/01/27 12:41:56;;;;;;;20.27;11.90;;;;;;;;;;5046830;28;20237;-84
2022/01/27 12:44:25;;;;;;;13.77;9.13;;;;;;;;;;5048703;28;20206;-84
2022/01/27 12:47:02;;;;;;;14.63;9.77;;;;;;;;;;5046120;28;20241;-84
2022/01/27 12:49:38;;;;;;;12.20;8.40;;;;;;;;;;5049158;28;20237;-84
2022/01/27 12:52:08;;;;;;;19.67;10.27;;;;;;;;;;5046631;28;20714;-83
2022/01/27 12:54:35;;;;;;;21.03;11.63;;;;;;;;;;5046994;28;20198;-84
2022/01/27 12:57:04;;;;;;;19.93;12.40;;;;;;;;;;5051215;28;20245;-84
2022/01/27 12:59:32;;;;;;;5.30;4.73;;;;;;;;;;5052564;28;20205;-84
2022/01/27 13:02:00;;;;;;;18.87;11.73;;;;;;;;;;5045263;28;20249;-84
2022/01/27 13:04:28;;;;;;;8.77;6.83;;;;;;;;;;5039523;28;20195;-85
2022/01/27 13:06:56;;;;;;;16.83;10.33;;;;;;;;;;5041507;28;20237;-85
2022/01/27 13:09:23;;;;;;;15.40;10.23;;;;;;;;;;5042658;28;20645;-85
2022/01/27 13:11:53;;;;;;;14.50;8.93;;;;;;;;;;5042608;28;20249;-85
2022/01/27 13:14:21;;;;;;;21.50;12.10;;;;;;;;;;5043138;28;20611;-84
2022/01/27 13:16:52;;;;;;;9.90;7.27;;;;;;;;;;5045617;28;20265;-85
2022/01/27 13:19:24;;;;;;;21.40;10.93;;;;;;;;;;5042466;28;20210;-83
2022/01/27 13:22:00;;;;;;;19.47;11.07;;;;;;;;;;5031554;28;20239;-83
2022/01/27 13:24:30;;;;;;;19.03;10.90;;;;;;;;;;5032930;28;20195;-83
2022/01/27 13:27:07;;;;;;;13.80;8.57;;;;;;;;;;5032009;28;20258;-83
2022/01/27 13:29:41;;;;;;;16.83;10.30;;;;;;;;;;5032664;28;20742;-82
2022/01/27 13:32:09;;;;;;;17.33;10.03;;;;;;;;;;5031763;28;20242;-83
2022/01/27 13:34:36;;;;;;;16.30;8.57;;;;;;;;;;5032365;28;20210;-82
2022/01/27 13:37:04;;;;;;;13.93;8.10;;;;;;;;;;5031511;28;20592;-83
2022/01/27 13:39:47;;;;;;;18.67;9.00;;;;;;;;;;5031970;28;20229;-83
2022/01/27 13:42:13;;;;;;;22.23;12.43;;;;;;;;;;5031042;28;20288;-83
2022/01/27 13:44:54;;;;;;;22.07;12.20;;;;;;;;;;5032503;28;20207;-84
2022/01/27 13:47:25;;;;;;;16.87;8.03;;;;;;;;;;5032798;28;20292;-83
2022/01/27 13:49:55;;;;;;;16.77;11.73;;;;;;;;;;5032619;28;20226;-83
2022/01/27 13:52:25;;;;;;;23.13;12.90;;;;;;;;;;5032457;28;20808;-84
2022/01/27 13:54:53;;;;;;;22.37;13.13;;;;;;;;;;5034770;28;20195;-83
2022/01/27 13:57:21;;;;;;;25.00;13.47;;;;;;;;;;5033023;28;20234;-83
2022/01/27 13:59:52;;;;;;;18.03;12.03;;;;;;;;;;5034035;28;20203;-83
2022/01/27 14:02:22;;;;;;;18.10;11.33;;;;;;;;;;5032285;28;20238;-83
2022/01/27 14:04:50;;;;;;;24.57;14.33;;;;;;;;;;5033119;28;20217;-83
2022/01/27 14:07:27;;;;;;;22.20;13.30;;;;;;;;;;5033228;28;20725;-83
2022/01/27 14:09:56;;;;;;;18.00;9.30;;;;;;;;;;5033064;28;20227;-83
2022/01/27 14:12:29;;;;;;;26.60;16.00;;;;;;;;;;5032496;28;20245;-83
2022/01/27 14:14:56;;;;;;;27.00;14.27;;;;;;;;;;5032724;28;20215;-82
2022/01/27 14:17:26;;;;;;;24.63;13.77;;;;;;;;;;5033197;28;20230;-83
2022/01/27 14:19:53;;;;;;;17.07;11.47;;;;;;;;;;5032818;28;20207;-83
2022/01/27 14:22:22;;;;;;;25.97;13.93;;;;;;;;;;5031456;28;20242;-83
2022/01/27 14:24:57;;;;;;;24.67;13.97;;;;;;;;;;5032438;28;20618;-83
2022/01/27 14:27:32;;;;;;;18.87;10.73;;;;;;;;;;5033249;28;20238;-83
2022/01/27 14:29:59;;;;;;;17.60;10.87;;;;;;;;;;5026252;28;20616;-82
2022/01/27 14:32:27;;;;;;;21.63;9.93;;;;;;;;;;5012205;28;20246;-83
2022/01/27 14:34:54;;;;;;;27.93;14.83;;;;;;;;;;5017196;28;20221;-83
2022/01/27 14:37:22;;;;;;;23.97;13.93;;;;;;;;;;5032103;28;20238;-83
2022/01/27 14:39:50;;;;;;;24.73;14.10;;;;;;;;;;5032464;28;20203;-83
2022/01/27 14:42:21;;;;;;;13.73;8.27;;;;;;;;;;5031828;28;20246;-83
2022/01/27 14:44:49;;;;;;;21.20;11.37;;;;;;;;;;5032366;28;20242;-82
2022/01/27 14:47:16;;;;;;;18.07;11.00;;;;;;;;;;5032850;28;20241;-87
2022/01/27 14:49:46;;;;;;;18.37;11.10;;;;;;;;;;5036104;28;20202;-83
2022/01/27 14:52:15;;;;;;;24.13;14.67;;;;;;;;;;5035011;28;20333;-84
2022/01/27 14:54:42;;;;;;;17.80;11.67;;;;;;;;;;5037277;28;20215;-82
2022/01/27 14:57:10;;;;;;;15.90;11.10;;;;;;;;;;5037516;28;20233;-82